Time,TemperatureF,DewpointF,PressureIn,WindDirection,WindDirectionDegrees,WindSpeedMPH,WindSpeedGustMPH,Humidity,HourlyPrecipIn,Conditions,Clouds,dailyrainin,SoftwareType,DateUTC
2013-02-24 00:00:00,35.3,34.0,29.76,North,3,6.0,6.9,95,0.00,CLR,,0.16,WeatherDisplay:10.37,2013-02-24 05:00:00,
2013-02-24 00:02:00,35.3,34.0,29.76,North,1,6.5,6.9,95,0.00,RA,,0.00,WeatherDisplay:10.37,2013-02-24 05:02:00,
2013-02-24 00:06:00,35.3,34.0,29.76,North,0,4.7,6.0,95,0.00,RA,,0.00,WeatherDisplay:10.37,2013-02-24 05:06:00,
2013-02-24 00:11:00,35.3,34.0,29.75,ENE,68,3.9,5.8,95,0.00,CLR,,0.00,WeatherDisplay:10.37,2013-02-24 05:11:00,
2013-02-24 00:16:00,35.2,33.9,29.75,North,0,4.3,5.0,95,0.00,CLR,,0.00,WeatherDisplay:10.37,2013-02-24 05:16:00,
2013-02-24 00:21:00,35.2,33.9,29.75,North,0,2.0,5.8,95,0.00,CLR,,0.00,WeatherDisplay:10.37,2013-02-24 05:21:00,
2013-02-24 00:26:00,35.0,33.7,29.75,North,0,3.2,4.6,95,0.00,CLR,,0.00,WeatherDisplay:10.37,2013-02-24 05:26:00,
2013-02-24 00:31:00,35.2,33.9,29.75,NE,45,1.1,1.1,95,0.00,CLR,,0.00,WeatherDisplay:10.37,2013-02-24 05:31:00,
2013-02-24 00:36:00,35.2,33.9,29.75,NE,44,0.0,0.0,95,0.00,CLR,,0.00,WeatherDisplay:10.37,2013-02-24 05:36:00,
2013-02-24 00:42:00,35.0,33.7,29.75,NE,34,0.4,1.2,95,0.00,CLR,,0.00,WeatherDisplay:10.37,2013-02-24 05:42:00,
2013-02-24 00:47:00,35.0,33.7,29.75,NNE,16,1.7,4.6,95,0.00,CLR,,0.00,WeatherDisplay:10.37,2013-02-24 05:47:00,
2013-02-24 00:52:00,34.9,33.6,29.75,NNE,13,1.4,3.5,95,0.00,CLR,,0.00,WeatherDisplay:10.37,2013-02-24 05:52:00,
2013-02-24 00:57:00,34.9,33.6,29.75,NNE,17,2.5,3.0,95,0.00,CLR,,0.00,WeatherDisplay:10.37,2013-02-24 05:57:00,
2013-02-24 01:02:00,34.9,33.6,29.76,NNE,17,1.7,2.3,95,0.00,CLR,,0.00,WeatherDisplay:10.37,2013-02-24 06:02:00,
2013-02-24 01:08:00,34.9,33.6,29.76,NNE,16,2.3,3.5,95,0.00,CLR,,0.00,WeatherDisplay:10.37,2013-02-24 06:08:00,
2013-02-24 01:13:00,34.7,33.4,29.75,NNE,16,0.3,2.3,95,0.00,CLR,,0.00,WeatherDisplay:10.37,2013-02-24 06:13:00,
2013-02-24 01:18:00,34.7,33.4,29.76,SSE,168,3.0,5.0,95,0.00,CLR,,0.00,WeatherDisplay:10.37,2013-02-24 06:18:00,
2013-02-24 01:23:00,34.7,33.4,29.75,North,0,3.7,6.9,95,0.00,CLR,,0.00,WeatherDisplay:10.37,2013-02-24 06:23:00,
2013-02-24 01:28:00,34.7,33.4,29.75,North,4,1.9,5.8,95,0.00,CLR,,0.00,WeatherDisplay:10.37,2013-02-24 06:28:00,
2013-02-24 01:33:00,34.7,33.4,29.76,North,4,0.0,0.0,95,0.00,CLR,,0.00,WeatherDisplay:10.37,2013-02-24 06:33:00,
2013-02-24 01:39:00,34.6,33.3,29.76,North,0,0.5,5.0,95,0.00,CLR,,0.00,WeatherDisplay:10.37,2013-02-24 06:39:00,
2013-02-24 01:44:00,34.6,33.3,29.76,North,0,2.8,5.0,95,0.00,CLR,,0.00,WeatherDisplay:10.37,2013-02-24 06:44:00,
2013-02-24 01:49:00,34.6,33.3,29.76,North,0,3.0,4.6,95,0.00,CLR,,0.00,WeatherDisplay:10.37,2013-02-24 06:49:00,
2013-02-24 01:54:00,34.6,33.3,29.76,North,0,0.4,3.5,95,0.00,CLR,,0.00,WeatherDisplay:10.37,2013-02-24 06:54:00,
2013-02-24 01:59:00,34.6,33.3,29.75,NNE,31,2.5,6.0,95,0.00,CLR,,0.00,WeatherDisplay:10.37,2013-02-24 06:59:00,
2013-02-24 02:04:00,34.6,33.3,29.75,North,3,2.1,3.5,95,0.00,CLR,,0.00,WeatherDisplay:10.37,2013-02-24 07:04:00,
2013-02-24 02:09:00,34.6,33.3,29.75,North,7,0.0,0.0,95,0.00,CLR,,0.00,WeatherDisplay:10.37,2013-02-24 07:09:00,
2013-02-24 02:14:00,34.6,33.3,29.75,North,6,3.5,5.8,95,0.00,CLR,,0.00,WeatherDisplay:10.37,2013-02-24 07:14:00,
2013-02-24 02:20:00,34.6,33.3,29.74,North,359,3.2,5.8,95,0.00,CLR,,0.00,WeatherDisplay:10.37,2013-02-24 07:20:00,
2013-02-24 02:25:00,34.4,33.1,29.75,NNE,28,0.0,0.0,95,0.00,CLR,,0.00,WeatherDisplay:10.37,2013-02-24 07:25:00,
2013-02-24 02:30:00,34.3,33.0,29.74,NNE,28,0.0,0.0,95,0.00,CLR,,0.00,WeatherDisplay:10.37,2013-02-24 07:30:00,
2013-02-24 02:35:00,34.3,33.0,29.74,NNE,28,0.0,0.0,95,0.00,CLR,,0.00,WeatherDisplay:10.37,2013-02-24 07:35:00,
2013-02-24 02:40:00,34.1,32.8,29.74,ENE,65,0.0,0.0,95,0.00,CLR,,0.00,WeatherDisplay:10.37,2013-02-24 07:40:00,
2013-02-24 02:46:00,34.1,32.8,29.74,ENE,65,0.0,0.0,95,0.00,CLR,,0.00,WeatherDisplay:10.37,2013-02-24 07:46:00,
2013-02-24 02:51:00,34.3,33.0,29.74,ENE,62,0.0,0.0,95,0.00,CLR,,0.00,WeatherDisplay:10.37,2013-02-24 07:51:00,
2013-02-24 02:56:00,34.3,33.0,29.74,ENE,62,1.6,2.3,95,0.00,CLR,,0.00,WeatherDisplay:10.37,2013-02-24 07:56:00,
2013-02-24 03:01:00,34.3,33.0,29.74,ENE,59,1.2,3.5,95,0.00,CLR,,0.00,WeatherDisplay:10.37,2013-02-24 08:01:00,
2013-02-24 03:06:00,34.3,33.0,29.74,ENE,59,0.0,0.0,95,0.00,CLR,,0.00,WeatherDisplay:10.37,2013-02-24 08:06:00,
2013-02-24 03:11:00,34.3,33.0,29.74,ENE,59,0.0,0.0,95,0.00,CLR,,0.00,WeatherDisplay:10.37,2013-02-24 08:11:00,
2013-02-24 03:17:00,34.3,33.0,29.74,ENE,59,0.0,0.0,95,0.00,CLR,,0.00,WeatherDisplay:10.37,2013-02-24 08:17:00,
2013-02-24 03:22:00,34.3,33.0,29.74,ENE,58,0.0,0.0,95,0.00,CLR,,0.00,WeatherDisplay:10.37,2013-02-24 08:22:00,
2013-02-24 03:27:00,34.3,33.0,29.74,NNE,21,0.0,0.0,95,0.00,CLR,,0.00,WeatherDisplay:10.37,2013-02-24 08:27:00,
2013-02-24 03:32:00,34.3,33.0,29.73,NNE,21,0.0,0.0,95,0.00,CLR,,0.00,WeatherDisplay:10.37,2013-02-24 08:32:00,
2013-02-24 03:37:00,34.1,32.8,29.74,NNE,20,0.0,0.0,95,0.00,CLR,,0.00,WeatherDisplay:10.37,2013-02-24 08:37:00,
2013-02-24 03:42:00,34.1,32.8,29.74,NNE,20,0.0,2.3,95,0.00,CLR,,0.00,WeatherDisplay:10.37,2013-02-24 08:42:00,
2013-02-24 03:47:00,34.1,32.8,29.74,NNE,20,0.0,0.0,95,0.00,CLR,,0.00,WeatherDisplay:10.37,2013-02-24 08:47:00,
2013-02-24 03:52:00,34.1,32.8,29.74,NNE,17,0.0,0.0,95,0.00,CLR,,0.00,WeatherDisplay:10.37,2013-02-24 08:52:00,
2013-02-24 03:57:00,34.1,32.8,29.73,NNE,17,2.3,4.6,95,0.00,CLR,,0.00,WeatherDisplay:10.37,2013-02-24 08:57:00,
2013-02-24 04:03:00,34.3,33.0,29.73,North,0,3.3,6.9,95,0.00,CLR,,0.00,WeatherDisplay:10.37,2013-02-24 09:03:00,
2013-02-24 04:08:00,34.3,33.0,29.72,ENE,58,1.9,3.5,95,0.00,CLR,,0.00,WeatherDisplay:10.37,2013-02-24 09:08:00,
2013-02-24 04:13:00,34.1,32.8,29.72,North,3,2.4,3.5,95,0.00,CLR,,0.00,WeatherDisplay:10.37,2013-02-24 09:13:00,
2013-02-24 04:18:00,34.1,32.8,29.72,NE,48,0.7,3.5,95,0.00,CLR,,0.00,WeatherDisplay:10.37,2013-02-24 09:18:00,
2013-02-24 04:23:00,34.1,32.8,29.71,NE,37,0.0,0.0,95,0.00,CLR,,0.00,WeatherDisplay:10.37,2013-02-24 09:23:00,
2013-02-24 04:28:00,34.1,32.8,29.72,NNE,21,1.4,3.5,95,0.00,CLR,,0.00,WeatherDisplay:10.37,2013-02-24 09:28:00,
2013-02-24 04:33:00,34.1,32.8,29.72,North,1,2.4,5.8,95,0.00,CLR,,0.00,WeatherDisplay:10.37,2013-02-24 09:33:00,
2013-02-24 04:38:00,34.1,32.8,29.72,North,0,6.3,11.5,95,0.00,CLR,,0.00,WeatherDisplay:10.37,2013-02-24 09:38:00,
2013-02-24 04:43:00,34.1,32.8,29.72,North,0,5.1,5.8,95,0.00,CLR,,0.00,WeatherDisplay:10.37,2013-02-24 09:43:00,
2013-02-24 04:48:00,34.1,32.8,29.72,North,7,4.1,8.1,95,0.00,CLR,,0.00,WeatherDisplay:10.37,2013-02-24 09:48:00,
2013-02-24 04:53:00,34.3,33.0,29.72,North,7,7.5,12.7,95,0.00,CLR,,0.00,WeatherDisplay:10.37,2013-02-24 09:53:00,
2013-02-24 04:58:00,34.3,33.0,29.71,North,0,3.2,7.0,95,0.00,CLR,,0.00,WeatherDisplay:10.37,2013-02-24 09:58:00,
2013-02-24 05:03:00,34.3,33.0,29.71,North,0,2.6,5.8,95,0.00,CLR,,0.00,WeatherDisplay:10.37,2013-02-24 10:03:00,
2013-02-24 05:08:00,34.3,33.0,29.72,North,354,2.8,3.5,95,0.00,CLR,,0.00,WeatherDisplay:10.37,2013-02-24 10:08:00,
2013-02-24 05:13:00,34.4,33.1,29.72,North,0,1.8,4.6,95,0.00,CLR,,0.00,WeatherDisplay:10.37,2013-02-24 10:13:00,
2013-02-24 05:18:00,34.4,33.1,29.72,North,1,1.4,3.5,95,0.00,CLR,,0.00,WeatherDisplay:10.37,2013-02-24 10:18:00,
2013-02-24 05:23:00,34.4,33.1,29.72,North,357,4.3,6.9,95,0.00,CLR,,0.00,WeatherDisplay:10.37,2013-02-24 10:23:00,
2013-02-24 05:28:00,34.4,33.1,29.72,North,357,0.0,1.2,95,0.00,CLR,,0.00,WeatherDisplay:10.37,2013-02-24 10:28:00,
2013-02-24 05:33:00,34.4,33.1,29.72,North,6,0.0,0.0,95,0.00,CLR,,0.00,WeatherDisplay:10.37,2013-02-24 10:33:00,
2013-02-24 05:39:00,34.6,33.3,29.72,North,0,0.0,0.0,95,0.00,CLR,,0.00,WeatherDisplay:10.37,2013-02-24 10:39:00,
2013-02-24 05:44:00,34.4,33.1,29.72,North,0,0.0,0.0,95,0.00,CLR,,0.00,WeatherDisplay:10.37,2013-02-24 10:44:00,
2013-02-24 05:49:00,34.6,33.3,29.72,North,0,0.0,0.0,95,0.00,CLR,,0.00,WeatherDisplay:10.37,2013-02-24 10:49:00,
2013-02-24 05:54:00,34.4,33.1,29.72,North,0,0.0,0.0,95,0.00,CLR,,0.00,WeatherDisplay:10.37,2013-02-24 10:54:00,
2013-02-24 05:59:00,34.4,33.1,29.72,North,0,0.0,0.0,95,0.00,CLR,,0.00,WeatherDisplay:10.37,2013-02-24 10:59:00,
2013-02-24 06:04:00,34.4,33.1,29.72,North,0,0.0,0.0,95,0.00,CLR,,0.00,WeatherDisplay:10.37,2013-02-24 11:04:00,
2013-02-24 06:09:00,34.4,33.1,29.72,North,0,0.0,0.0,95,0.00,CLR,,0.00,WeatherDisplay:10.37,2013-02-24 11:09:00,
2013-02-24 06:14:00,34.3,33.0,29.73,North,0,0.0,0.0,95,0.00,CLR,,0.00,WeatherDisplay:10.37,2013-02-24 11:14:00,
2013-02-24 06:19:00,34.3,33.0,29.72,North,0,0.0,0.0,95,0.00,CLR,,0.00,WeatherDisplay:10.37,2013-02-24 11:19:00,
2013-02-24 06:24:00,34.1,32.8,29.72,North,0,0.0,0.0,95,0.00,CLR,,0.00,WeatherDisplay:10.37,2013-02-24 11:24:00,
2013-02-24 06:29:00,34.1,32.8,29.72,North,0,0.0,0.0,95,0.00,CLR,,0.00,WeatherDisplay:10.37,2013-02-24 11:29:00,
2013-02-24 06:34:00,34.1,32.8,29.72,North,0,0.0,0.0,95,0.00,CLR,,0.00,WeatherDisplay:10.37,2013-02-24 11:34:00,
2013-02-24 06:39:00,34.1,32.8,29.72,North,0,0.0,0.0,95,0.00,CLR,,0.00,WeatherDisplay:10.37,2013-02-24 11:39:00,
2013-02-24 06:44:00,34.1,32.8,29.72,North,0,0.0,0.0,95,0.00,CLR,,0.00,WeatherDisplay:10.37,2013-02-24 11:44:00,
2013-02-24 06:49:00,34.1,32.8,29.72,NNE,23,0.0,0.0,95,0.00,CLR,,0.00,WeatherDisplay:10.37,2013-02-24 11:49:00,
2013-02-24 06:54:00,34.1,32.8,29.72,NNE,23,0.0,0.0,95,0.00,CLR,,0.00,WeatherDisplay:10.37,2013-02-24 11:54:00,
2013-02-24 06:59:00,33.8,32.5,29.72,NNE,23,0.0,0.0,95,0.00,CLR,,0.00,WeatherDisplay:10.37,2013-02-24 11:59:00,
2013-02-24 07:04:00,33.8,32.5,29.72,NNE,23,0.0,0.0,95,0.00,CLR,,0.00,WeatherDisplay:10.37,2013-02-24 12:04:00,
2013-02-24 07:09:00,33.8,32.5,29.72,NNE,23,0.0,0.0,95,0.00,CLR,,0.00,WeatherDisplay:10.37,2013-02-24 12:09:00,
2013-02-24 07:14:00,33.8,32.5,29.73,NNE,23,0.0,0.0,95,0.00,CLR,,0.00,WeatherDisplay:10.37,2013-02-24 12:14:00,
2013-02-24 07:19:00,33.8,32.5,29.72,NNE,23,0.0,0.0,95,0.00,CLR,,0.00,WeatherDisplay:10.37,2013-02-24 12:19:00,
2013-02-24 07:24:00,34.0,32.7,29.72,NNE,23,0.0,0.0,95,0.00,CLR,,0.00,WeatherDisplay:10.37,2013-02-24 12:24:00,
2013-02-24 07:29:00,34.0,33.0,29.72,NNE,23,0.0,0.0,96,0.00,CLR,,0.00,WeatherDisplay:10.37,2013-02-24 12:29:00,
2013-02-24 07:34:00,34.1,32.8,29.72,NNE,23,0.0,0.0,95,0.00,CLR,,0.00,WeatherDisplay:10.37,2013-02-24 12:34:00,
2013-02-24 07:39:00,34.1,32.8,29.73,NNE,23,0.0,0.0,95,0.00,CLR,,0.00,WeatherDisplay:10.37,2013-02-24 12:39:00,
2013-02-24 07:45:00,34.1,32.8,29.73,NNE,23,0.0,0.0,95,0.00,CLR,,0.00,WeatherDisplay:10.37,2013-02-24 12:45:00,
2013-02-24 07:50:00,34.0,32.7,29.73,North,352,0.0,0.0,95,0.00,CLR,,0.00,WeatherDisplay:10.37,2013-02-24 12:50:00,
2013-02-24 07:55:00,34.1,32.8,29.73,North,354,0.0,0.0,95,0.00,CLR,,0.00,WeatherDisplay:10.37,2013-02-24 12:55:00,
2013-02-24 08:00:00,34.1,33.1,29.73,North,353,0.0,0.0,96,0.00,CLR,,0.00,WeatherDisplay:10.37,2013-02-24 13:00:00,
2013-02-24 08:05:00,34.3,33.3,29.74,North,353,0.0,0.0,96,0.00,CLR,,0.00,WeatherDisplay:10.37,2013-02-24 13:05:00,
2013-02-24 08:10:00,34.4,33.4,29.73,North,353,0.0,0.0,96,0.00,CLR,,0.00,WeatherDisplay:10.37,2013-02-24 13:10:00,
2013-02-24 08:15:00,35.0,34.0,29.73,North,353,0.0,0.0,96,0.00,CLR,,0.00,WeatherDisplay:10.37,2013-02-24 13:15:00,
2013-02-24 08:20:00,35.6,34.6,29.73,North,353,0.0,0.0,96,0.00,CLR,,0.00,WeatherDisplay:10.37,2013-02-24 13:20:00,
2013-02-24 08:25:00,35.8,34.8,29.73,North,353,0.0,0.0,96,0.00,CLR,,0.00,WeatherDisplay:10.37,2013-02-24 13:25:00,
2013-02-24 08:30:00,36.2,35.2,29.73,WNW,288,0.3,0.0,96,0.00,CLR,,0.00,WeatherDisplay:10.37,2013-02-24 13:30:00,
2013-02-24 08:35:00,36.3,35.3,29.73,WNW,288,0.0,0.0,96,0.00,CLR,,0.00,WeatherDisplay:10.37,2013-02-24 13:35:00,
2013-02-24 08:40:00,36.5,35.5,29.73,NW,305,1.6,3.5,96,0.00,CLR,,0.00,WeatherDisplay:10.37,2013-02-24 13:40:00,
2013-02-24 08:45:00,36.6,35.6,29.73,NW,305,0.1,1.2,96,0.00,CLR,,0.00,WeatherDisplay:10.37,2013-02-24 13:45:00,
2013-02-24 08:50:00,37.3,36.3,29.73,NW,305,0.0,0.0,96,0.00,CLR,,0.00,WeatherDisplay:10.37,2013-02-24 13:50:00,
2013-02-24 08:56:00,37.8,36.8,29.73,NW,315,1.0,2.3,96,0.00,CLR,,0.00,WeatherDisplay:10.37,2013-02-24 13:56:00,
2013-02-24 09:01:00,37.8,36.5,29.73,NW,315,0.0,0.0,95,0.00,CLR,,0.00,WeatherDisplay:10.37,2013-02-24 14:01:00,
2013-02-24 09:06:00,38.3,37.0,29.73,SW,226,0.0,0.0,95,0.00,CLR,,0.00,WeatherDisplay:10.37,2013-02-24 14:06:00,
2013-02-24 09:11:00,39.3,38.0,29.73,SW,226,0.0,0.0,95,0.00,CLR,,0.00,WeatherDisplay:10.37,2013-02-24 14:11:00,
2013-02-24 09:16:00,39.8,38.5,29.72,SW,223,0.0,0.0,95,0.00,CLR,,0.00,WeatherDisplay:10.37,2013-02-24 14:16:00,
2013-02-24 09:21:00,39.8,37.9,29.73,NNW,347,0.5,2.3,93,0.00,CLR,,0.00,WeatherDisplay:10.37,2013-02-24 14:21:00,
2013-02-24 09:27:00,39.8,37.7,29.72,West,275,1.4,4.6,92,0.00,CLR,,0.00,WeatherDisplay:10.37,2013-02-24 14:27:00,
2013-02-24 09:32:00,39.6,37.2,29.72,West,281,2.1,4.6,91,0.00,CLR,,0.00,WeatherDisplay:10.37,2013-02-24 14:32:00,
2013-02-24 09:37:00,39.9,36.9,29.73,NW,309,2.3,4.6,89,0.00,CLR,,0.00,WeatherDisplay:10.37,2013-02-24 14:37:00,
2013-02-24 09:42:00,39.5,36.0,29.72,NNW,329,1.9,5.8,87,0.00,CLR,,0.00,WeatherDisplay:10.37,2013-02-24 14:42:00,
2013-02-24 09:47:00,40.1,36.5,29.72,North,359,0.0,3.5,87,0.00,CLR,,0.00,WeatherDisplay:10.37,2013-02-24 14:47:00,
2013-02-24 09:52:00,40.8,36.6,29.72,NNW,328,3.0,8.1,85,0.00,CLR,,0.00,WeatherDisplay:10.37,2013-02-24 14:52:00,
2013-02-24 09:57:00,41.2,36.4,29.72,North,353,2.1,3.5,83,0.00,CLR,,0.00,WeatherDisplay:10.37,2013-02-24 14:57:00,
2013-02-24 10:02:00,40.9,35.2,29.72,North,0,3.6,8.1,80,0.00,CLR,,0.00,WeatherDisplay:10.37,2013-02-24 15:02:00,
2013-02-24 10:08:00,41.3,35.9,29.72,West,275,1.3,4.0,81,0.00,CLR,,0.00,WeatherDisplay:10.37,2013-02-24 15:08:00,
2013-02-24 10:13:00,41.2,35.5,29.73,NW,319,1.3,4.6,80,0.00,CLR,,0.00,WeatherDisplay:10.37,2013-02-24 15:13:00,
2013-02-24 10:18:00,40.9,35.2,29.73,WNW,301,0.7,2.3,80,0.00,CLR,,0.00,WeatherDisplay:10.37,2013-02-24 15:18:00,
2013-02-24 10:23:00,40.8,34.8,29.73,NW,323,1.3,4.6,79,0.00,CLR,,0.00,WeatherDisplay:10.37,2013-02-24 15:23:00,
2013-02-24 10:28:00,41.1,34.4,29.73,NNW,339,1.5,4.6,77,0.00,CLR,,0.00,WeatherDisplay:10.37,2013-02-24 15:28:00,
2013-02-24 10:33:00,41.3,33.6,29.73,NNW,332,2.8,6.9,74,0.00,CLR,,0.00,WeatherDisplay:10.37,2013-02-24 15:33:00,
2013-02-24 10:39:00,41.8,34.5,29.73,WNW,285,2.3,8.1,75,0.00,CLR,,0.00,WeatherDisplay:10.37,2013-02-24 15:39:00,
2013-02-24 10:44:00,41.8,33.8,29.73,NW,312,1.0,2.3,73,0.00,CLR,,0.00,WeatherDisplay:10.37,2013-02-24 15:44:00,
2013-02-24 10:49:00,42.2,34.5,29.73,NW,326,1.7,3.5,74,0.00,CLR,,0.00,WeatherDisplay:10.37,2013-02-24 15:49:00,
2013-02-24 10:54:00,42.3,33.2,29.73,WNW,282,6.1,11.5,70,0.00,CLR,,0.00,WeatherDisplay:10.37,2013-02-24 15:54:00,
2013-02-24 10:59:00,41.6,32.5,29.73,WSW,243,4.2,8.1,70,0.00,CLR,,0.00,WeatherDisplay:10.37,2013-02-24 15:59:00,
2013-02-24 11:05:00,41.3,33.0,29.73,NNW,336,3.7,8.1,72,0.00,CLR,,0.00,WeatherDisplay:10.37,2013-02-24 16:05:00,
2013-02-24 11:10:00,41.3,31.9,29.74,NW,315,2.2,6.9,69,0.00,CLR,,0.00,WeatherDisplay:10.37,2013-02-24 16:10:00,
2013-02-24 11:15:00,41.2,31.1,29.74,NNW,329,3.9,11.5,67,0.00,CLR,,0.00,WeatherDisplay:10.37,2013-02-24 16:15:00,
2013-02-24 11:20:00,41.2,31.1,29.73,WNW,299,2.5,5.8,67,0.00,CLR,,0.00,WeatherDisplay:10.37,2013-02-24 16:20:00,
2013-02-24 11:26:00,41.6,31.1,29.73,NW,311,3.1,10.0,66,0.00,CLR,,0.00,WeatherDisplay:10.37,2013-02-24 16:26:00,
2013-02-24 11:31:00,42.3,31.4,29.73,North,350,1.6,3.5,65,0.00,CLR,,0.00,WeatherDisplay:10.37,2013-02-24 16:31:00,
2013-02-24 11:36:00,42.3,30.2,29.73,NNW,342,1.6,3.5,62,0.00,CLR,,0.00,WeatherDisplay:10.37,2013-02-24 16:36:00,
2013-02-24 11:41:00,42.2,30.9,29.73,NW,312,1.0,2.3,64,0.00,CLR,,0.00,WeatherDisplay:10.37,2013-02-24 16:41:00,
2013-02-24 11:46:00,41.9,29.8,29.73,NNW,333,3.7,5.8,62,0.00,CLR,,0.00,WeatherDisplay:10.37,2013-02-24 16:46:00,
2013-02-24 11:51:00,41.5,30.2,29.73,NNW,335,1.6,6.9,64,0.00,CLR,,0.00,WeatherDisplay:10.37,2013-02-24 16:51:00,
2013-02-24 11:56:00,41.8,30.1,29.73,WSW,251,0.9,3.5,63,0.00,CLR,,0.00,WeatherDisplay:10.37,2013-02-24 16:56:00,
2013-02-24 12:02:00,42.6,30.5,29.73,WNW,292,0.3,2.3,62,0.00,CLR,,0.00,WeatherDisplay:10.37,2013-02-24 17:02:00,
2013-02-24 12:07:00,42.9,29.1,29.73,NW,313,5.4,17.3,58,0.00,CLR,,0.00,WeatherDisplay:10.37,2013-02-24 17:07:00,
2013-02-24 12:12:00,42.6,29.7,29.73,WNW,284,4.5,10.4,60,0.00,CLR,,0.00,WeatherDisplay:10.37,2013-02-24 17:12:00,
2013-02-24 12:17:00,42.3,29.4,29.73,NW,305,4.9,4.9,60,0.00,CLR,,0.00,WeatherDisplay:10.37,2013-02-24 17:17:00,
2013-02-24 12:22:00,42.1,28.4,29.73,WNW,299,5.3,5.8,58,0.00,CLR,,0.00,WeatherDisplay:10.37,2013-02-24 17:22:00,
2013-02-24 12:27:00,41.9,29.4,29.73,West,281,0.0,2.3,61,0.00,CLR,,0.00,WeatherDisplay:10.37,2013-02-24 17:27:00,
2013-02-24 12:32:00,41.6,28.7,29.73,NW,322,4.4,17.3,60,0.00,CLR,,0.00,WeatherDisplay:10.37,2013-02-24 17:32:00,
2013-02-24 12:38:00,41.5,29.4,29.73,WNW,295,0.0,0.0,62,0.00,CLR,,0.00,WeatherDisplay:10.37,2013-02-24 17:38:00,
2013-02-24 12:43:00,41.3,29.3,29.73,WNW,285,2.3,8.0,62,0.00,CLR,,0.00,WeatherDisplay:10.37,2013-02-24 17:43:00,
2013-02-24 12:48:00,41.3,28.9,29.72,NW,309,0.8,3.5,61,0.00,CLR,,0.00,WeatherDisplay:10.37,2013-02-24 17:48:00,
2013-02-24 12:53:00,41.2,29.9,29.72,North,4,0.0,1.0,64,0.00,CLR,,0.00,WeatherDisplay:10.37,2013-02-24 17:53:00,
2013-02-24 12:58:00,41.1,30.2,29.72,NW,312,0.0,0.0,65,0.00,CLR,,0.00,WeatherDisplay:10.37,2013-02-24 17:58:00,
2013-02-24 13:04:00,40.8,29.6,29.72,NNW,336,1.1,3.5,64,0.00,CLR,,0.00,WeatherDisplay:10.37,2013-02-24 18:04:00,
2013-02-24 13:09:00,40.6,29.7,29.72,NNW,344,0.7,2.3,65,0.00,CLR,,0.00,WeatherDisplay:10.37,2013-02-24 18:09:00,
2013-02-24 13:14:00,40.6,30.1,29.72,NNW,347,0.0,0.0,66,0.00,CLR,,0.00,WeatherDisplay:10.37,2013-02-24 18:14:00,
2013-02-24 13:19:00,40.6,29.4,29.72,North,359,1.0,5.0,64,0.00,CLR,,0.00,WeatherDisplay:10.37,2013-02-24 18:19:00,
2013-02-24 13:24:00,40.6,29.7,29.72,NNW,329,0.8,3.5,65,0.00,CLR,,0.00,WeatherDisplay:10.37,2013-02-24 18:24:00,
2013-02-24 13:29:00,40.3,29.5,29.72,NW,308,1.1,3.5,65,0.00,CLR,,0.00,WeatherDisplay:10.37,2013-02-24 18:29:00,
2013-02-24 13:35:00,40.2,29.4,29.72,North,359,2.9,8.1,65,0.00,CLR,,0.00,WeatherDisplay:10.37,2013-02-24 18:35:00,
2013-02-24 13:40:00,40.1,28.9,29.73,NNW,333,0.1,1.2,64,0.00,CLR,,0.00,WeatherDisplay:10.37,2013-02-24 18:40:00,
2013-02-24 13:45:00,40.1,28.9,29.73,NNW,340,0.8,2.3,64,0.00,CLR,,0.00,WeatherDisplay:10.37,2013-02-24 18:45:00,
2013-02-24 13:50:00,39.9,28.7,29.73,North,356,0.3,2.3,64,0.00,CLR,,0.00,WeatherDisplay:10.37,2013-02-24 18:50:00,
2013-02-24 13:55:00,39.8,28.6,29.73,NNW,336,1.4,5.8,64,0.00,CLR,,0.00,WeatherDisplay:10.37,2013-02-24 18:55:00,
2013-02-24 14:00:00,39.8,29.0,29.73,SSW,192,0.1,4.6,65,0.00,CLR,,0.00,WeatherDisplay:10.37,2013-02-24 19:00:00,
2013-02-24 14:05:00,39.6,29.2,29.73,West,281,1.8,3.5,66,0.00,CLR,,0.00,WeatherDisplay:10.37,2013-02-24 19:05:00,
2013-02-24 14:10:00,39.3,29.3,29.73,WNW,294,1.7,2.0,67,0.00,CLR,,0.00,WeatherDisplay:10.37,2013-02-24 19:10:00,
2013-02-24 14:16:00,39.2,29.5,29.73,WNW,302,3.3,13.8,68,0.00,CLR,,0.00,WeatherDisplay:10.37,2013-02-24 19:16:00,
2013-02-24 14:21:00,39.1,29.4,29.73,NW,316,2.4,10.0,68,0.00,CLR,,0.00,WeatherDisplay:10.37,2013-02-24 19:21:00,
2013-02-24 14:26:00,38.6,29.3,29.73,North,359,0.4,2.3,69,0.00,CLR,,0.00,WeatherDisplay:10.37,2013-02-24 19:26:00,
2013-02-24 14:31:00,38.3,29.4,29.73,WNW,298,3.5,10.0,70,0.00,CLR,,0.00,WeatherDisplay:10.37,2013-02-24 19:31:00,
2013-02-24 14:36:00,38.2,29.6,29.73,WNW,298,0.0,0.0,71,0.00,CLR,,0.00,WeatherDisplay:10.37,2013-02-24 19:36:00,
2013-02-24 14:41:00,38.2,29.6,29.73,WNW,296,0.1,2.3,71,0.00,CLR,,0.00,WeatherDisplay:10.37,2013-02-24 19:41:00,
2013-02-24 14:46:00,38.0,29.8,29.73,NW,304,0.0,0.0,72,0.00,CLR,,0.00,WeatherDisplay:10.37,2013-02-24 19:46:00,
2013-02-24 14:51:00,37.8,29.6,29.73,NNW,333,5.1,6.0,72,0.00,CLR,,0.00,WeatherDisplay:10.37,2013-02-24 19:51:00,
2013-02-24 14:56:00,37.3,29.4,29.74,NNW,346,1.8,10.0,73,0.00,CLR,,0.00,WeatherDisplay:10.37,2013-02-24 19:56:00,
2013-02-24 15:01:00,37.2,29.3,29.74,WNW,302,8.1,11.5,73,0.00,CLR,,0.00,WeatherDisplay:10.37,2013-02-24 20:01:00,
2013-02-24 15:07:00,36.9,29.1,29.74,NNW,340,6.1,9.2,73,0.00,CLR,,0.00,WeatherDisplay:10.37,2013-02-24 20:07:00,
2013-02-24 15:12:00,36.5,29.0,29.75,NNW,328,8.7,17.3,74,0.00,CLR,,0.00,WeatherDisplay:10.37,2013-02-24 20:12:00,
2013-02-24 15:17:00,36.0,28.5,29.75,NNW,336,7.9,11.5,74,0.00,CLR,,0.00,WeatherDisplay:10.37,2013-02-24 20:17:00,
2013-02-24 15:22:00,35.6,28.5,29.75,WNW,285,8.2,18.4,75,0.00,CLR,,0.00,WeatherDisplay:10.37,2013-02-24 20:22:00,
2013-02-24 15:27:00,35.2,28.1,29.76,West,275,10.9,17.3,75,0.00,CLR,,0.00,WeatherDisplay:10.37,2013-02-24 20:27:00,
2013-02-24 15:32:00,35.0,27.9,29.77,NW,315,7.1,12.7,75,0.00,CLR,,0.00,WeatherDisplay:10.37,2013-02-24 20:32:00,
2013-02-24 15:37:00,34.7,27.3,29.77,NNW,340,7.3,16.1,74,0.00,CLR,,0.00,WeatherDisplay:10.37,2013-02-24 20:37:00,
2013-02-24 15:42:00,34.6,26.8,29.78,WNW,291,9.3,12.7,73,0.00,CLR,,0.00,WeatherDisplay:10.37,2013-02-24 20:42:00,
2013-02-24 15:48:00,34.4,26.6,29.78,NW,320,6.0,8.1,73,0.00,CLR,,0.00,WeatherDisplay:10.37,2013-02-24 20:48:00,
2013-02-24 15:53:00,34.3,26.5,29.78,WNW,298,5.0,10.4,73,0.00,CLR,,0.00,WeatherDisplay:10.37,2013-02-24 20:53:00,
2013-02-24 15:58:00,34.3,26.2,29.78,NW,318,7.0,11.5,72,0.00,CLR,,0.00,WeatherDisplay:10.37,2013-02-24 20:58:00,
2013-02-24 16:03:00,34.1,26.0,29.79,WNW,289,4.8,11.5,72,0.00,CLR,,0.00,WeatherDisplay:10.37,2013-02-24 21:03:00,
2013-02-24 16:08:00,34.1,25.7,29.79,NW,318,5.9,11.5,71,0.00,CLR,,0.00,WeatherDisplay:10.37,2013-02-24 21:08:00,
2013-02-24 16:14:00,34.0,25.6,29.79,WNW,287,4.7,8.1,71,0.00,CLR,,0.00,WeatherDisplay:10.37,2013-02-24 21:14:00,
2013-02-24 16:19:00,34.0,24.5,29.79,North,352,4.8,11.5,68,0.00,CLR,,0.00,WeatherDisplay:10.37,2013-02-24 21:19:00,
2013-02-24 16:24:00,34.0,24.2,29.80,NNW,330,0.1,1.2,67,0.00,CLR,,0.00,WeatherDisplay:10.37,2013-02-24 21:24:00,
2013-02-24 16:29:00,34.0,23.8,29.80,West,281,4.7,8.1,66,0.00,CLR,,0.00,WeatherDisplay:10.37,2013-02-24 21:29:00,
2013-02-24 16:34:00,34.0,23.5,29.80,NW,311,4.5,12.0,65,0.00,CLR,,0.00,WeatherDisplay:10.37,2013-02-24 21:34:00,
2013-02-24 16:39:00,34.0,23.1,29.80,NNW,333,1.9,8.0,64,0.00,CLR,,0.00,WeatherDisplay:10.37,2013-02-24 21:39:00,
2013-02-24 16:44:00,34.0,22.3,29.80,WNW,285,8.3,11.5,62,0.00,CLR,,0.00,WeatherDisplay:10.37,2013-02-24 21:44:00,
2013-02-24 16:49:00,34.0,23.1,29.80,NW,319,3.3,11.5,64,0.00,CLR,,0.00,WeatherDisplay:10.37,2013-02-24 21:49:00,
2013-02-24 16:54:00,34.0,22.3,29.80,NW,315,7.9,8.1,62,0.00,CLR,,0.00,WeatherDisplay:10.37,2013-02-24 21:54:00,
2013-02-24 16:59:00,34.0,22.7,29.80,NW,308,2.2,8.1,63,0.00,CLR,,0.00,WeatherDisplay:10.37,2013-02-24 21:59:00,
2013-02-24 17:04:00,34.0,22.3,29.80,NW,304,3.8,11.5,62,0.00,CLR,,0.00,WeatherDisplay:10.37,2013-02-24 22:04:00,
2013-02-24 17:09:00,34.0,22.0,29.80,WNW,296,6.1,11.5,61,0.00,CLR,,0.00,WeatherDisplay:10.37,2013-02-24 22:09:00,
2013-02-24 17:15:00,34.0,21.6,29.81,NW,313,8.2,13.8,60,0.00,CLR,,0.00,WeatherDisplay:10.37,2013-02-24 22:15:00,
2013-02-24 17:20:00,34.0,21.6,29.81,NW,304,4.5,11.5,60,0.00,CLR,,0.00,WeatherDisplay:10.37,2013-02-24 22:20:00,
2013-02-24 17:25:00,33.8,21.4,29.81,West,281,9.5,13.8,60,0.00,CLR,,0.00,WeatherDisplay:10.37,2013-02-24 22:25:00,
2013-02-24 17:30:00,33.8,21.0,29.81,WNW,295,7.3,11.5,59,0.00,CLR,,0.00,WeatherDisplay:10.37,2013-02-24 22:30:00,
2013-02-24 17:35:00,33.8,21.0,29.82,WNW,294,6.2,10.0,59,0.00,CLR,,0.00,WeatherDisplay:10.37,2013-02-24 22:35:00,
2013-02-24 17:40:00,33.7,21.3,29.82,WNW,298,6.7,10.4,60,0.00,CLR,,0.00,WeatherDisplay:10.37,2013-02-24 22:40:00,
2013-02-24 17:45:00,33.5,20.7,29.82,West,280,9.6,11.5,59,0.00,CLR,,0.00,WeatherDisplay:10.37,2013-02-24 22:45:00,
2013-02-24 17:50:00,33.5,21.1,29.83,NW,304,3.6,6.9,60,0.00,CLR,,0.00,WeatherDisplay:10.37,2013-02-24 22:50:00,
2013-02-24 17:55:00,33.4,21.0,29.83,North,352,5.7,11.5,60,0.00,CLR,,0.00,WeatherDisplay:10.37,2013-02-24 22:55:00,
2013-02-24 18:00:00,33.4,21.0,29.83,NNW,342,7.9,11.5,60,0.00,CLR,,0.00,WeatherDisplay:10.37,2013-02-24 23:00:00,
2013-02-24 18:06:00,33.2,20.8,29.84,WNW,299,8.4,11.5,60,0.00,CLR,,0.00,WeatherDisplay:10.37,2013-02-24 23:06:00,
2013-02-24 18:11:00,33.1,21.5,29.84,North,356,7.2,13.8,62,0.00,CLR,,0.00,WeatherDisplay:10.37,2013-02-24 23:11:00,
2013-02-24 18:16:00,32.9,21.7,29.85,NNW,342,3.1,6.9,63,0.00,CLR,,0.00,WeatherDisplay:10.37,2013-02-24 23:16:00,
2013-02-24 18:21:00,32.7,21.5,29.85,NW,313,4.6,8.1,63,0.00,CLR,,0.00,WeatherDisplay:10.37,2013-02-24 23:21:00,
2013-02-24 18:26:00,32.5,21.3,29.85,North,4,1.5,6.0,63,0.00,CLR,,0.00,WeatherDisplay:10.37,2013-02-24 23:26:00,
2013-02-24 18:31:00,32.4,21.6,29.85,North,350,4.4,7.0,64,0.00,CLR,,0.00,WeatherDisplay:10.37,2013-02-24 23:31:00,
2013-02-24 18:37:00,32.4,21.6,29.85,WNW,296,5.6,8.1,64,0.00,CLR,,0.00,WeatherDisplay:10.37,2013-02-24 23:37:00,
2013-02-24 18:42:00,32.4,21.6,29.86,NNW,333,5.3,11.5,64,0.00,CLR,,0.00,WeatherDisplay:10.37,2013-02-24 23:42:00,
2013-02-24 18:47:00,32.4,21.2,29.86,NW,312,8.7,12.7,63,0.00,CLR,,0.00,WeatherDisplay:10.37,2013-02-24 23:47:00,
2013-02-24 18:52:00,32.5,21.3,29.86,NW,312,6.9,11.5,63,0.00,CLR,,0.00,WeatherDisplay:10.37,2013-02-24 23:52:00,
2013-02-24 18:57:00,32.5,21.3,29.87,WNW,282,6.7,11.5,63,0.00,CLR,,0.00,WeatherDisplay:10.37,2013-02-24 23:57:00,
2013-02-24 19:02:00,32.4,20.8,29.87,WNW,284,6.4,11.0,62,0.00,CLR,,0.00,WeatherDisplay:10.37,2013-02-25 00:02:00,
2013-02-24 19:07:00,32.4,21.2,29.87,North,350,4.1,5.8,63,0.00,CLR,,0.00,WeatherDisplay:10.37,2013-02-25 00:07:00,
2013-02-24 19:12:00,32.4,21.2,29.88,West,277,3.4,6.9,63,0.00,CLR,,0.00,WeatherDisplay:10.37,2013-02-25 00:12:00,
2013-02-24 19:17:00,32.2,21.4,29.88,NW,305,0.0,1.2,64,0.00,CLR,,0.00,WeatherDisplay:10.37,2013-02-25 00:17:00,
2013-02-24 19:22:00,32.2,21.4,29.88,NW,316,2.5,11.5,64,0.00,CLR,,0.00,WeatherDisplay:10.37,2013-02-25 00:22:00,
2013-02-24 19:28:00,32.1,21.3,29.88,NW,309,6.2,11.5,64,0.00,CLR,,0.00,WeatherDisplay:10.37,2013-02-25 00:28:00,
2013-02-24 19:33:00,32.1,21.7,29.88,NW,323,3.2,5.8,65,0.00,CLR,,0.00,WeatherDisplay:10.37,2013-02-25 00:33:00,
2013-02-24 19:38:00,32.1,21.3,29.89,NW,319,6.6,11.5,64,0.00,CLR,,0.00,WeatherDisplay:10.37,2013-02-25 00:38:00,
2013-02-24 19:43:00,32.1,21.7,29.89,NNW,329,0.0,2.3,65,0.00,CLR,,0.00,WeatherDisplay:10.37,2013-02-25 00:43:00,
2013-02-24 19:48:00,32.1,21.3,29.89,NNW,344,5.5,11.5,64,0.00,CLR,,0.00,WeatherDisplay:10.37,2013-02-25 00:48:00,
2013-02-24 19:53:00,32.1,20.5,29.89,NNW,347,9.9,12.7,62,0.00,CLR,,0.00,WeatherDisplay:10.37,2013-02-25 00:53:00,
2013-02-24 19:58:00,32.2,20.6,29.89,North,354,7.0,9.2,62,0.00,CLR,,0.00,WeatherDisplay:10.37,2013-02-25 00:58:00,
2013-02-24 20:03:00,32.1,20.2,29.89,North,353,8.8,13.8,61,0.00,CLR,,0.00,WeatherDisplay:10.37,2013-02-25 01:03:00,
2013-02-24 20:08:00,32.1,20.2,29.89,NW,325,7.0,11.5,61,0.00,CLR,,0.00,WeatherDisplay:10.37,2013-02-25 01:08:00,
2013-02-24 20:13:00,31.9,20.3,29.89,NNW,332,5.3,8.1,62,0.00,CLR,,0.00,WeatherDisplay:10.37,2013-02-25 01:13:00,
2013-02-24 20:18:00,31.8,20.3,29.89,NW,312,3.9,7.0,62,0.00,CLR,,0.00,WeatherDisplay:10.37,2013-02-25 01:18:00,
2013-02-24 20:23:00,31.8,20.3,29.90,North,350,6.8,8.1,62,0.00,CLR,,0.00,WeatherDisplay:10.37,2013-02-25 01:23:00,
2013-02-24 20:28:00,31.8,20.3,29.90,West,275,5.6,11.5,62,0.00,CLR,,0.00,WeatherDisplay:10.37,2013-02-25 01:28:00,
2013-02-24 20:33:00,31.6,20.1,29.91,NW,308,6.0,9.2,62,0.00,CLR,,0.00,WeatherDisplay:10.37,2013-02-25 01:33:00,
2013-02-24 20:38:00,31.5,20.3,29.91,WNW,294,0.0,5.8,63,0.00,CLR,,0.00,WeatherDisplay:10.37,2013-02-25 01:38:00,
2013-02-24 20:43:00,31.5,20.3,29.91,NW,308,2.6,11.5,63,0.00,CLR,,0.00,WeatherDisplay:10.37,2013-02-25 01:43:00,
2013-02-24 20:49:00,31.5,20.3,29.91,SSW,210,1.4,6.9,63,0.00,CLR,,0.00,WeatherDisplay:10.37,2013-02-25 01:49:00,
2013-02-24 20:54:00,31.3,20.5,29.91,WNW,295,0.0,0.0,64,0.00,CLR,,0.00,WeatherDisplay:10.37,2013-02-25 01:54:00,
2013-02-24 20:59:00,31.3,20.2,29.91,North,1,7.0,16.1,63,0.00,CLR,,0.00,WeatherDisplay:10.37,2013-02-25 01:59:00,
2013-02-24 21:04:00,31.3,20.2,29.91,West,265,6.4,6.9,63,0.00,CLR,,0.00,WeatherDisplay:10.37,2013-02-25 02:04:00,
2013-02-24 21:09:00,31.3,20.5,29.91,WNW,296,0.1,4.6,64,0.00,CLR,,0.00,WeatherDisplay:10.37,2013-02-25 02:09:00,
2013-02-24 21:14:00,31.3,20.5,29.91,WNW,302,4.4,11.5,64,0.00,CLR,,0.00,WeatherDisplay:10.37,2013-02-25 02:14:00,
2013-02-24 21:19:00,31.2,20.4,29.91,WNW,295,0.0,6.9,64,0.00,CLR,,0.00,WeatherDisplay:10.37,2013-02-25 02:19:00,
2013-02-24 21:25:00,31.2,20.8,29.91,North,357,0.0,0.0,65,0.00,CLR,,0.00,WeatherDisplay:10.37,2013-02-25 02:25:00,
2013-02-24 21:30:00,31.0,20.6,29.91,West,267,0.0,0.0,65,0.00,CLR,,0.00,WeatherDisplay:10.37,2013-02-25 02:30:00,
2013-02-24 21:35:00,30.9,20.5,29.91,WNW,289,0.0,0.0,65,0.00,CLR,,0.00,WeatherDisplay:10.37,2013-02-25 02:35:00,
2013-02-24 21:40:00,30.7,20.3,29.91,WNW,288,5.3,10.4,65,0.00,CLR,,0.00,WeatherDisplay:10.37,2013-02-25 02:40:00,
2013-02-24 21:45:00,30.9,20.5,29.91,NNW,336,0.1,1.2,65,0.00,CLR,,0.00,WeatherDisplay:10.37,2013-02-25 02:45:00,
2013-02-24 21:50:00,30.7,20.3,29.91,WNW,284,0.0,0.0,65,0.00,CLR,,0.00,WeatherDisplay:10.37,2013-02-25 02:50:00,
2013-02-24 21:56:00,30.9,20.5,29.92,North,1,0.0,0.0,65,0.00,CLR,,0.00,WeatherDisplay:10.37,2013-02-25 02:56:00,
2013-02-24 22:01:00,30.7,20.3,29.92,North,359,0.0,0.0,65,0.00,CLR,,0.00,WeatherDisplay:10.37,2013-02-25 03:01:00,
2013-02-24 22:06:00,30.6,20.2,29.92,WNW,298,0.0,0.0,65,0.00,CLR,,0.00,WeatherDisplay:10.37,2013-02-25 03:06:00,
2013-02-24 22:11:00,30.7,20.3,29.92,WNW,285,0.0,0.0,65,0.00,CLR,,0.00,WeatherDisplay:10.37,2013-02-25 03:11:00,
2013-02-24 22:16:00,30.7,20.3,29.92,NNW,342,5.0,11.5,65,0.00,CLR,,0.00,WeatherDisplay:10.37,2013-02-25 03:16:00,
2013-02-24 22:21:00,30.7,20.3,29.92,WNW,284,4.5,6.9,65,0.00,CLR,,0.00,WeatherDisplay:10.37,2013-02-25 03:21:00,
2013-02-24 22:26:00,30.6,20.6,29.92,WNW,294,5.6,6.9,66,0.00,CLR,,0.00,WeatherDisplay:10.37,2013-02-25 03:26:00,
2013-02-24 22:31:00,30.6,20.6,29.92,WNW,295,5.0,6.9,66,0.00,CLR,,0.00,WeatherDisplay:10.37,2013-02-25 03:31:00,
2013-02-24 22:37:00,30.6,20.2,29.92,NNW,328,3.8,6.9,65,0.00,CLR,,0.00,WeatherDisplay:10.37,2013-02-25 03:37:00,
2013-02-24 22:42:00,30.6,20.6,29.92,NW,306,1.5,4.6,66,0.00,CLR,,0.00,WeatherDisplay:10.37,2013-02-25 03:42:00,
2013-02-24 22:47:00,30.6,20.6,29.92,NW,318,4.6,10.4,66,0.00,CLR,,0.00,WeatherDisplay:10.37,2013-02-25 03:47:00,
2013-02-24 22:52:00,30.4,20.7,29.92,NW,304,0.0,0.0,67,0.00,CLR,,0.00,WeatherDisplay:10.37,2013-02-25 03:52:00,
2013-02-24 22:57:00,30.3,20.6,29.92,NW,311,0.0,0.0,67,0.00,CLR,,0.00,WeatherDisplay:10.37,2013-02-25 03:57:00,
2013-02-24 23:02:00,30.3,20.6,29.92,WSW,248,8.0,11.5,67,0.00,CLR,,0.00,WeatherDisplay:10.37,2013-02-25 04:02:00,
2013-02-24 23:08:00,30.4,20.4,29.92,WNW,289,3.0,6.9,66,0.00,CLR,,0.00,WeatherDisplay:10.37,2013-02-25 04:08:00,
2013-02-24 23:13:00,30.4,20.7,29.92,NW,320,0.0,0.0,67,0.00,CLR,,0.00,WeatherDisplay:10.37,2013-02-25 04:13:00,
2013-02-24 23:18:00,30.3,20.3,29.93,NW,311,5.2,7.0,66,0.00,CLR,,0.00,WeatherDisplay:10.37,2013-02-25 04:18:00,
2013-02-24 23:23:00,30.3,20.6,29.93,North,0,0.0,0.0,67,0.00,CLR,,0.00,WeatherDisplay:10.37,2013-02-25 04:23:00,
2013-02-24 23:28:00,30.3,20.3,29.93,WNW,284,0.0,10.4,66,0.00,CLR,,0.00,WeatherDisplay:10.37,2013-02-25 04:28:00,
2013-02-24 23:34:00,30.4,20.4,29.93,North,356,0.1,1.2,66,0.00,CLR,,0.00,WeatherDisplay:10.37,2013-02-25 04:34:00,
2013-02-24 23:39:00,30.3,20.6,29.93,NW,311,0.0,0.0,67,0.00,CLR,,0.00,WeatherDisplay:10.37,2013-02-25 04:39:00,
2013-02-24 23:44:00,30.1,20.5,29.93,NW,306,0.0,0.0,67,0.00,CLR,,0.00,WeatherDisplay:10.37,2013-02-25 04:44:00,
2013-02-24 23:49:00,30.0,20.4,29.93,WNW,299,0.0,0.0,67,0.00,CLR,,0.00,WeatherDisplay:10.37,2013-02-25 04:49:00,
2013-02-24 23:54:00,30.1,20.5,29.93,West,280,4.3,8.1,67,0.00,CLR,,0.00,WeatherDisplay:10.37,2013-02-25 04:54:00,
2013-02-24 23:59:00,30.1,20.5,29.93,West,268,6.1,10.4,67,0.00,CLR,,0.00,WeatherDisplay:10.37,2013-02-25 04:59:00,